Time;durP1;ratioP1;P1;durP2;ratioP2;P2;SDS_P1;SDS_P2;PMS_P1;PMS_P2;Temp;Humidity;BMP_temperature;BMP_pressure;BME280_temperature;BME280_humidity;BME280_pressure;Samples;Min_cycle;Max_cycle;Signal;HPM_P1;HPM_P2
2023/08/22 00:01:22;;;;;;;3.42;2.63;;;;;;;;;;4998019;28;20500;-70
2023/08/22 00:03:47;;;;;;;5.28;3.15;;;;;;;;;;5006207;28;20574;-70
2023/08/22 00:06:12;;;;;;;5.63;3.40;;;;;;;;;;5005601;22;20239;-67
2023/08/22 00:08:38;;;;;;;6.85;3.67;;;;;;;;;;4987174;28;20187;-66
2023/08/22 00:11:03;;;;;;;6.72;4.72;;;;;;;;;;4983197;28;20183;-66
2023/08/22 00:13:28;;;;;;;6.85;4.93;;;;;;;;;;4988352;28;20184;-67
2023/08/22 00:16:00;;;;;;;7.32;4.88;;;;;;;;;;4989359;28;20202;-67
2023/08/22 00:18:25;;;;;;;16.70;5.43;;;;;;;;;;4988689;28;20187;-67
2023/08/22 00:20:51;;;;;;;9.80;5.22;;;;;;;;;;4986881;28;20179;-67
2023/08/22 00:23:16;;;;;;;12.50;5.28;;;;;;;;;;4988619;28;20183;-67
2023/08/22 00:25:42;;;;;;;7.63;4.93;;;;;;;;;;4986542;28;20285;-67
2023/08/22 00:28:07;;;;;;;8.77;4.65;;;;;;;;;;4987409;28;20721;-67
2023/08/22 00:30:32;;;;;;;6.75;4.32;;;;;;;;;;4982696;28;20195;-69
2023/08/22 00:32:57;;;;;;;10.60;5.50;;;;;;;;;;4985619;28;20293;-67
2023/08/22 00:35:25;;;;;;;6.97;4.32;;;;;;;;;;4986721;28;20592;-67
2023/08/22 00:37:50;;;;;;;4.80;4.03;;;;;;;;;;4987276;28;20191;-67
2023/08/22 00:40:15;;;;;;;8.27;5.88;;;;;;;;;;4985962;28;20183;-66
2023/08/22 00:42:41;;;;;;;9.23;5.30;;;;;;;;;;4988437;28;20190;-66
2023/08/22 00:45:06;;;;;;;9.70;5.93;;;;;;;;;;4987410;28;20241;-66
2023/08/22 00:47:32;;;;;;;8.27;5.78;;;;;;;;;;4987917;28;20266;-66
2023/08/22 00:49:57;;;;;;;7.70;5.40;;;;;;;;;;4988648;28;20247;-67
2023/08/22 00:52:22;;;;;;;10.38;5.88;;;;;;;;;;4991902;28;20225;-67
2023/08/22 00:54:49;;;;;;;11.00;5.47;;;;;;;;;;4985628;28;20188;-67
2023/08/22 00:57:14;;;;;;;10.02;5.53;;;;;;;;;;4991905;28;20205;-67
2023/08/22 00:59:40;;;;;;;9.43;6.25;;;;;;;;;;4991035;28;20175;-67
2023/08/22 01:02:07;;;;;;;8.50;5.63;;;;;;;;;;4989744;28;20187;-67
2023/08/22 01:04:32;;;;;;;6.43;4.63;;;;;;;;;;4990916;28;20195;-67
2023/08/22 01:07:16;;;;;;;7.95;4.85;;;;;;;;;;4990164;28;20222;-66
2023/08/22 01:09:52;;;;;;;9.55;4.63;;;;;;;;;;4991678;28;20195;-67
2023/08/22 01:12:36;;;;;;;9.63;4.75;;;;;;;;;;4991042;28;21145;-67
2023/08/22 01:15:10;;;;;;;9.95;5.50;;;;;;;;;;4990403;28;20192;-67
2023/08/22 01:17:36;;;;;;;8.27;5.60;;;;;;;;;;4990524;28;20569;-67
2023/08/22 01:20:03;;;;;;;8.95;5.47;;;;;;;;;;4988218;28;20600;-67
2023/08/22 01:22:28;;;;;;;10.35;6.57;;;;;;;;;;4989551;28;20566;-67
2023/08/22 01:24:53;;;;;;;10.50;6.53;;;;;;;;;;4989763;28;20179;-67
2023/08/22 01:27:20;;;;;;;8.52;6.18;;;;;;;;;;4990389;28;21098;-67
2023/08/22 01:29:50;;;;;;;8.02;5.35;;;;;;;;;;4989989;28;20223;-67
2023/08/22 01:32:30;;;;;;;12.68;7.38;;;;;;;;;;4990314;28;20215;-68
2023/08/22 01:35:00;;;;;;;10.30;6.18;;;;;;;;;;4987991;28;20198;-67
2023/08/22 01:37:25;;;;;;;7.82;5.50;;;;;;;;;;4990020;28;20180;-67
2023/08/22 01:39:55;;;;;;;10.27;6.75;;;;;;;;;;4990185;28;20186;-67
2023/08/22 01:42:21;;;;;;;7.25;5.28;;;;;;;;;;4989414;28;20242;-67
2023/08/22 01:44:46;;;;;;;10.50;5.97;;;;;;;;;;4989184;28;20195;-68
2023/08/22 01:47:11;;;;;;;7.20;5.85;;;;;;;;;;4987726;28;20207;-67
2023/08/22 01:49:37;;;;;;;6.60;4.97;;;;;;;;;;4987345;28;20187;-67
2023/08/22 01:52:03;;;;;;;10.50;5.45;;;;;;;;;;4989725;28;20219;-67
2023/08/22 01:54:28;;;;;;;12.43;6.40;;;;;;;;;;4989235;28;20183;-67
2023/08/22 01:56:53;;;;;;;10.77;7.22;;;;;;;;;;4989294;28;20215;-67
2023/08/22 01:59:18;;;;;;;9.95;6.47;;;;;;;;;;4990767;28;20176;-67
2023/08/22 02:01:43;;;;;;;7.85;5.15;;;;;;;;;;4988958;28;20194;-67
2023/08/22 02:04:09;;;;;;;7.47;5.97;;;;;;;;;;4989460;28;20237;-67
2023/08/22 02:06:34;;;;;;;6.60;5.40;;;;;;;;;;4988427;28;20219;-67
2023/08/22 02:08:59;;;;;;;12.77;7.90;;;;;;;;;;4989646;28;20192;-67
2023/08/22 02:11:24;;;;;;;10.07;6.70;;;;;;;;;;4988871;28;20451;-67
2023/08/22 02:13:50;;;;;;;10.55;7.32;;;;;;;;;;4990110;28;20187;-67
2023/08/22 02:16:15;;;;;;;9.70;6.90;;;;;;;;;;4987028;28;20685;-67
2023/08/22 02:18:40;;;;;;;13.73;7.95;;;;;;;;;;4988026;28;20183;-67
2023/08/22 02:21:05;;;;;;;12.38;8.52;;;;;;;;;;4986144;28;20187;-67
2023/08/22 02:23:32;;;;;;;10.85;7.90;;;;;;;;;;4989441;28;20183;-67
2023/08/22 02:25:57;;;;;;;8.65;6.60;;;;;;;;;;4989695;28;20207;-67
2023/08/22 02:28:22;;;;;;;11.82;8.13;;;;;;;;;;4988677;28;20230;-66
2023/08/22 02:30:48;;;;;;;9.35;7.13;;;;;;;;;;4990016;28;20179;-67
2023/08/22 02:33:13;;;;;;;8.88;7.35;;;;;;;;;;4989793;28;20218;-67
2023/08/22 02:35:39;;;;;;;12.73;7.90;;;;;;;;;;4988984;28;20577;-67
2023/08/22 02:38:04;;;;;;;10.68;7.90;;;;;;;;;;4990255;28;20856;-68
2023/08/22 02:40:29;;;;;;;12.75;8.18;;;;;;;;;;4990260;28;20713;-67
2023/08/22 02:42:55;;;;;;;15.40;8.50;;;;;;;;;;4988472;28;20285;-68
2023/08/22 02:45:20;;;;;;;15.05;8.65;;;;;;;;;;4989159;28;20706;-69
2023/08/22 02:47:45;;;;;;;15.15;8.82;;;;;;;;;;4989931;28;20194;-65
2023/08/22 02:50:10;;;;;;;10.95;8.15;;;;;;;;;;4989594;28;20191;-67
2023/08/22 02:52:35;;;;;;;9.30;7.57;;;;;;;;;;4989670;28;20681;-66
2023/08/22 02:55:01;;;;;;;12.05;9.20;;;;;;;;;;4989003;28;20175;-67
2023/08/22 02:57:26;;;;;;;11.88;7.72;;;;;;;;;;4986962;28;20222;-67
2023/08/22 02:59:51;;;;;;;16.15;9.65;;;;;;;;;;4989552;28;20259;-67
2023/08/22 03:02:17;;;;;;;14.35;8.93;;;;;;;;;;4988799;28;20317;-66
2023/08/22 03:04:43;;;;;;;13.68;10.00;;;;;;;;;;4988189;28;20210;-67
2023/08/22 03:07:09;;;;;;;15.98;10.95;;;;;;;;;;4986859;28;20392;-66
2023/08/22 03:09:34;;;;;;;11.57;8.55;;;;;;;;;;4989104;28;20191;-67
2023/08/22 03:12:00;;;;;;;16.30;8.27;;;;;;;;;;4987943;28;20203;-68
2023/08/22 03:14:25;;;;;;;16.80;8.55;;;;;;;;;;4988656;28;20187;-67
2023/08/22 03:16:50;;;;;;;27.95;11.05;;;;;;;;;;4988126;28;20309;-67
2023/08/22 03:19:15;;;;;;;16.15;11.20;;;;;;;;;;4988716;28;20222;-67
2023/08/22 03:21:41;;;;;;;13.63;9.10;;;;;;;;;;4987272;28;20197;-67
2023/08/22 03:24:06;;;;;;;11.77;9.32;;;;;;;;;;4984432;28;20186;-66
2023/08/22 03:26:31;;;;;;;11.75;7.68;;;;;;;;;;4988312;28;20207;-67
2023/08/22 03:28:57;;;;;;;14.23;9.80;;;;;;;;;;4988278;28;20194;-67
2023/08/22 03:31:25;;;;;;;11.50;8.27;;;;;;;;;;4988075;28;20242;-67
2023/08/22 03:33:50;;;;;;;12.77;8.05;;;;;;;;;;4988269;28;20188;-67
2023/08/22 03:36:16;;;;;;;11.50;7.40;;;;;;;;;;4986570;28;20211;-67
2023/08/22 03:38:41;;;;;;;15.50;10.35;;;;;;;;;;4989015;28;20189;-67
2023/08/22 03:41:06;;;;;;;14.02;9.98;;;;;;;;;;4988818;28;21061;-67
2023/08/22 03:43:32;;;;;;;17.10;9.70;;;;;;;;;;4987558;28;20847;-67
2023/08/22 03:45:57;;;;;;;20.35;13.02;;;;;;;;;;4988454;28;20218;-67
2023/08/22 03:48:22;;;;;;;16.67;11.45;;;;;;;;;;4988049;28;21369;-67
2023/08/22 03:50:47;;;;;;;19.73;12.55;;;;;;;;;;4987449;28;20741;-67
2023/08/22 03:53:13;;;;;;;18.70;12.63;;;;;;;;;;4988157;28;20210;-66
2023/08/22 03:55:38;;;;;;;12.52;10.13;;;;;;;;;;4986919;28;20924;-66
2023/08/22 03:58:04;;;;;;;13.45;10.02;;;;;;;;;;4988802;28;20179;-67
2023/08/22 04:00:30;;;;;;;12.93;9.40;;;;;;;;;;4987092;28;20237;-67
2023/08/22 04:02:56;;;;;;;16.48;8.02;;;;;;;;;;4985886;28;20565;-67
2023/08/22 04:05:22;;;;;;;10.30;8.00;;;;;;;;;;4986939;28;20234;-67
2023/08/22 04:07:47;;;;;;;12.23;7.30;;;;;;;;;;4988086;28;20670;-67
2023/08/22 04:10:12;;;;;;;12.05;8.15;;;;;;;;;;4988536;28;20179;-68
2023/08/22 04:12:37;;;;;;;10.73;7.60;;;;;;;;;;4986497;28;20251;-67
2023/08/22 04:15:03;;;;;;;13.95;9.10;;;;;;;;;;4987090;28;20282;-67
2023/08/22 04:17:28;;;;;;;11.95;8.25;;;;;;;;;;4985713;28;20176;-67
2023/08/22 04:19:53;;;;;;;15.80;10.05;;;;;;;;;;4988453;28;20184;-67
2023/08/22 04:22:19;;;;;;;11.75;9.60;;;;;;;;;;4987916;28;20556;-67
2023/08/22 04:24:44;;;;;;;20.65;10.55;;;;;;;;;;4983474;28;20186;-67
2023/08/22 04:27:09;;;;;;;14.27;8.98;;;;;;;;;;4990824;28;20207;-67
2023/08/22 04:29:34;;;;;;;16.48;12.00;;;;;;;;;;4991817;28;20217;-67
2023/08/22 04:32:01;;;;;;;18.45;10.00;;;;;;;;;;4990245;28;21189;-67
2023/08/22 04:34:26;;;;;;;14.45;10.60;;;;;;;;;;4991611;28;20267;-67
2023/08/22 04:36:51;;;;;;;17.52;11.35;;;;;;;;;;4991468;28;20202;-67
2023/08/22 04:39:16;;;;;;;21.05;11.40;;;;;;;;;;4991911;28;20188;-67
2023/08/22 04:41:43;;;;;;;16.08;11.75;;;;;;;;;;4991061;28;20191;-67
2023/08/22 04:44:08;;;;;;;19.85;10.80;;;;;;;;;;4987876;28;20237;-66
2023/08/22 04:46:33;;;;;;;13.57;9.80;;;;;;;;;;4991643;28;20207;-67
2023/08/22 04:48:58;;;;;;;16.98;10.98;;;;;;;;;;4991186;28;20658;-67
2023/08/22 04:51:23;;;;;;;17.35;9.85;;;;;;;;;;4991895;28;20290;-67
2023/08/22 04:53:51;;;;;;;18.08;11.77;;;;;;;;;;4989229;28;20274;-66
2023/08/22 04:56:16;;;;;;;15.02;9.77;;;;;;;;;;4990000;28;20207;-66
2023/08/22 04:58:41;;;;;;;19.70;12.65;;;;;;;;;;4988359;28;20712;-67
2023/08/22 05:01:06;;;;;;;14.15;10.27;;;;;;;;;;4991914;28;20183;-67
2023/08/22 05:03:32;;;;;;;13.77;9.77;;;;;;;;;;4990731;28;20188;-67
2023/08/22 05:05:57;;;;;;;13.60;9.32;;;;;;;;;;4990216;28;20277;-68
2023/08/22 05:08:22;;;;;;;12.95;8.18;;;;;;;;;;4990863;28;20219;-68
2023/08/22 05:10:47;;;;;;;10.52;7.57;;;;;;;;;;4991783;28;20563;-67
2023/08/22 05:13:12;;;;;;;13.55;9.13;;;;;;;;;;4990944;28;20720;-68
2023/08/22 05:15:38;;;;;;;16.83;9.43;;;;;;;;;;4989477;28;20886;-68
2023/08/22 05:18:03;;;;;;;17.30;8.57;;;;;;;;;;4991553;28;21014;-68
2023/08/22 05:20:29;;;;;;;12.25;8.30;;;;;;;;;;4991325;28;20244;-68
2023/08/22 05:22:54;;;;;;;13.63;8.52;;;;;;;;;;4985699;28;20187;-68
2023/08/22 05:25:19;;;;;;;13.05;8.48;;;;;;;;;;4986230;28;20206;-67
2023/08/22 05:27:45;;;;;;;21.08;9.30;;;;;;;;;;4985529;28;20218;-68
2023/08/22 05:30:10;;;;;;;13.25;8.82;;;;;;;;;;4989074;28;20249;-68
2023/08/22 05:32:35;;;;;;;12.20;7.82;;;;;;;;;;4989233;28;20725;-67
2023/08/22 05:35:02;;;;;;;13.13;8.25;;;;;;;;;;4988832;28;20184;-68
2023/08/22 05:37:27;;;;;;;15.43;10.48;;;;;;;;;;4988017;28;21003;-68
2023/08/22 05:39:52;;;;;;;16.73;10.63;;;;;;;;;;4989043;28;21002;-68
2023/08/22 05:42:18;;;;;;;18.85;10.00;;;;;;;;;;4987972;28;20570;-68
2023/08/22 05:44:43;;;;;;;15.32;9.38;;;;;;;;;;4987880;28;20183;-68
2023/08/22 05:47:08;;;;;;;16.23;9.23;;;;;;;;;;4990666;28;20691;-68
2023/08/22 05:49:34;;;;;;;12.88;8.93;;;;;;;;;;4990572;28;20583;-67
2023/08/22 05:52:03;;;;;;;14.90;9.20;;;;;;;;;;4990595;28;20207;-68
2023/08/22 05:54:28;;;;;;;12.65;8.25;;;;;;;;;;4989939;28;20881;-66
2023/08/22 05:56:54;;;;;;;12.65;8.02;;;;;;;;;;4990504;28;20205;-67
2023/08/22 05:59:19;;;;;;;12.88;8.35;;;;;;;;;;4988875;28;20183;-67
2023/08/22 06:01:44;;;;;;;11.63;8.23;;;;;;;;;;4984770;28;20837;-66
2023/08/22 06:04:10;;;;;;;15.07;7.63;;;;;;;;;;4988963;28;20633;-68
2023/08/22 06:06:35;;;;;;;16.83;8.88;;;;;;;;;;4998703;23;20239;-70
2023/08/22 06:09:00;;;;;;;13.77;7.18;;;;;;;;;;4990639;28;20643;-71
2023/08/22 06:11:25;;;;;;;16.75;8.85;;;;;;;;;;4993196;28;20810;-71
2023/08/22 06:13:51;;;;;;;10.50;7.30;;;;;;;;;;4991696;28;20190;-71
2023/08/22 06:16:16;;;;;;;12.18;7.60;;;;;;;;;;4987410;28;20207;-71
2023/08/22 06:18:41;;;;;;;12.23;7.43;;;;;;;;;;4981498;28;20190;-72
2023/08/22 06:21:06;;;;;;;9.20;6.65;;;;;;;;;;4980647;28;20179;-71
2023/08/22 06:23:31;;;;;;;11.57;6.70;;;;;;;;;;4980896;28;20188;-71
2023/08/22 06:25:57;;;;;;;10.98;7.28;;;;;;;;;;4980637;28;20207;-71
2023/08/22 06:28:22;;;;;;;13.70;6.97;;;;;;;;;;4980877;28;20187;-70
2023/08/22 06:30:47;;;;;;;10.27;6.18;;;;;;;;;;4977169;28;20248;-71
2023/08/22 06:33:12;;;;;;;9.02;6.25;;;;;;;;;;4982856;28;20335;-71
2023/08/22 06:35:38;;;;;;;7.97;5.75;;;;;;;;;;4981049;28;20591;-70
2023/08/22 06:38:03;;;;;;;14.18;7.93;;;;;;;;;;4979108;28;20187;-71
2023/08/22 06:40:28;;;;;;;9.15;5.68;;;;;;;;;;4979813;28;20181;-71
2023/08/22 06:42:53;;;;;;;10.05;6.30;;;;;;;;;;4981381;28;20682;-71
2023/08/22 06:45:19;;;;;;;11.52;5.25;;;;;;;;;;4974044;28;20760;-71
2023/08/22 06:47:44;;;;;;;10.60;5.63;;;;;;;;;;4977355;28;20243;-71
2023/08/22 06:50:09;;;;;;;10.75;6.30;;;;;;;;;;4979524;28;20183;-71
2023/08/22 06:52:35;;;;;;;7.47;5.20;;;;;;;;;;4980226;28;20302;-71
2023/08/22 06:55:00;;;;;;;8.02;5.00;;;;;;;;;;4980266;28;20194;-71
2023/08/22 06:57:26;;;;;;;13.93;6.03;;;;;;;;;;4980158;28;20219;-71
2023/08/22 06:59:51;;;;;;;7.68;5.13;;;;;;;;;;4980290;28;20180;-72
2023/08/22 07:02:16;;;;;;;10.32;5.40;;;;;;;;;;4981478;28;20756;-71
2023/08/22 07:04:41;;;;;;;10.95;5.18;;;;;;;;;;4980750;28;20680;-71
2023/08/22 07:07:06;;;;;;;8.85;5.15;;;;;;;;;;4978872;28;20219;-71
2023/08/22 07:09:32;;;;;;;11.20;5.40;;;;;;;;;;4979142;28;20602;-71
2023/08/22 07:11:57;;;;;;;11.43;5.20;;;;;;;;;;4981992;28;20592;-71
2023/08/22 07:14:22;;;;;;;9.57;5.03;;;;;;;;;;4982098;28;20190;-70
2023/08/22 07:16:47;;;;;;;10.52;6.18;;;;;;;;;;4979855;28;20210;-71
2023/08/22 07:19:13;;;;;;;7.40;5.03;;;;;;;;;;4981153;28;20184;-70
2023/08/22 07:21:38;;;;;;;7.80;5.43;;;;;;;;;;4981207;28;20184;-71
2023/08/22 07:24:04;;;;;;;7.80;4.45;;;;;;;;;;4983939;28;20195;-70
2023/08/22 07:26:29;;;;;;;9.20;5.57;;;;;;;;;;4983877;28;20215;-70
2023/08/22 07:28:55;;;;;;;8.35;4.90;;;;;;;;;;4983362;28;20194;-70
2023/08/22 07:31:20;;;;;;;6.90;4.75;;;;;;;;;;4975115;28;20703;-70
2023/08/22 07:33:45;;;;;;;8.63;4.45;;;;;;;;;;4979534;28;20191;-71
2023/08/22 07:36:17;;;;;;;8.07;4.75;;;;;;;;;;4983354;28;20637;-71
2023/08/22 07:38:42;;;;;;;8.48;4.50;;;;;;;;;;4982512;28;20180;-71
2023/08/22 07:41:08;;;;;;;11.48;4.80;;;;;;;;;;4982850;28;20179;-70
2023/08/22 07:43:33;;;;;;;6.28;4.50;;;;;;;;;;4982648;28;20196;-71
2023/08/22 07:45:58;;;;;;;8.90;3.73;;;;;;;;;;4986241;28;20713;-71
2023/08/22 07:48:24;;;;;;;8.80;4.15;;;;;;;;;;4984901;28;20433;-71
2023/08/22 07:50:49;;;;;;;9.32;4.22;;;;;;;;;;4977450;28;20187;-71
2023/08/22 07:53:14;;;;;;;10.70;4.82;;;;;;;;;;4980838;28;20217;-71
2023/08/22 07:55:40;;;;;;;8.18;4.53;;;;;;;;;;4982511;28;20619;-70
2023/08/22 07:58:05;;;;;;;10.48;4.63;;;;;;;;;;4983181;28;20207;-70
2023/08/22 08:00:30;;;;;;;6.70;4.00;;;;;;;;;;4981397;28;20188;-70
2023/08/22 08:02:55;;;;;;;6.30;4.38;;;;;;;;;;4980650;28;20203;-70
2023/08/22 08:05:20;;;;;;;8.43;4.47;;;;;;;;;;4979098;28;20198;-71
2023/08/22 08:07:46;;;;;;;7.90;4.18;;;;;;;;;;4976505;28;20200;-71
2023/08/22 08:10:11;;;;;;;8.85;4.15;;;;;;;;;;4979881;28;20196;-71
2023/08/22 08:12:36;;;;;;;7.25;3.88;;;;;;;;;;4979765;28;20199;-71
2023/08/22 08:15:02;;;;;;;8.68;3.67;;;;;;;;;;4979734;28;20186;-72
2023/08/22 08:17:27;;;;;;;7.75;3.83;;;;;;;;;;4980778;28;20204;-69
2023/08/22 08:19:52;;;;;;;6.67;3.93;;;;;;;;;;4980756;28;20190;-69
2023/08/22 08:22:17;;;;;;;9.57;4.18;;;;;;;;;;4978663;28;20852;-69
2023/08/22 08:24:43;;;;;;;6.10;4.03;;;;;;;;;;4979640;28;20669;-71
2023/08/22 08:27:08;;;;;;;9.25;4.63;;;;;;;;;;4979972;28;21441;-71
2023/08/22 08:29:33;;;;;;;7.72;3.72;;;;;;;;;;4979895;28;20184;-69
2023/08/22 08:32:00;;;;;;;9.93;4.40;;;;;;;;;;4965935;28;20291;-70
2023/08/22 08:34:25;;;;;;;6.45;3.88;;;;;;;;;;4977651;28;20261;-70
2023/08/22 08:36:50;;;;;;;8.38;3.67;;;;;;;;;;4980037;28;20282;-70
2023/08/22 08:39:17;;;;;;;8.07;4.28;;;;;;;;;;4980238;28;20179;-70
2023/08/22 08:41:48;;;;;;;7.65;3.45;;;;;;;;;;4978036;28;20282;-70
2023/08/22 08:44:14;;;;;;;10.68;4.07;;;;;;;;;;4980758;28;20187;-70
2023/08/22 08:46:39;;;;;;;6.10;3.83;;;;;;;;;;4977254;28;20287;-70
2023/08/22 08:49:05;;;;;;;8.60;3.88;;;;;;;;;;4978656;28;20211;-70
2023/08/22 08:51:30;;;;;;;5.13;3.63;;;;;;;;;;4978827;28;20215;-70
2023/08/22 08:53:56;;;;;;;6.18;3.47;;;;;;;;;;4980858;28;20210;-70
2023/08/22 08:56:21;;;;;;;9.23;4.18;;;;;;;;;;4979503;28;20704;-70
2023/08/22 08:58:46;;;;;;;8.10;3.63;;;;;;;;;;4980913;28;20183;-70
2023/08/22 09:01:12;;;;;;;8.13;3.97;;;;;;;;;;4979371;28;20180;-70
2023/08/22 09:03:38;;;;;;;9.82;3.80;;;;;;;;;;4978962;28;20186;-70
2023/08/22 09:06:03;;;;;;;8.13;3.70;;;;;;;;;;4978176;28;20339;-70
2023/08/22 09:08:28;;;;;;;6.32;4.63;;;;;;;;;;4975240;28;20222;-70
2023/08/22 09:10:53;;;;;;;8.15;3.63;;;;;;;;;;4982337;28;20263;-70
2023/08/22 09:13:29;;;;;;;13.68;4.35;;;;;;;;;;4981178;28;20293;-70
2023/08/22 09:15:57;;;;;;;6.00;3.78;;;;;;;;;;4983445;28;20576;-70
2023/08/22 09:18:22;;;;;;;6.55;3.88;;;;;;;;;;4982997;28;20204;-70
2023/08/22 09:20:48;;;;;;;5.80;3.63;;;;;;;;;;4984215;28;20358;-70
2023/08/22 09:23:20;;;;;;;9.95;4.53;;;;;;;;;;4981162;28;20433;-70
2023/08/22 09:25:45;;;;;;;6.97;4.72;;;;;;;;;;4978062;28;20247;-70
2023/08/22 09:28:10;;;;;;;7.07;4.23;;;;;;;;;;4983692;28;20183;-70
2023/08/22 09:30:36;;;;;;;6.07;3.83;;;;;;;;;;4983735;28;20409;-71
2023/08/22 09:33:01;;;;;;;7.38;4.00;;;;;;;;;;4982776;28;20652;-70
2023/08/22 09:35:30;;;;;;;11.18;4.38;;;;;;;;;;4984485;28;20262;-70
2023/08/22 09:38:04;;;;;;;11.73;4.18;;;;;;;;;;4982371;28;20561;-70
2023/08/22 09:40:29;;;;;;;8.15;4.80;;;;;;;;;;4982668;28;20184;-70
2023/08/22 09:42:54;;;;;;;5.03;4.00;;;;;;;;;;4978792;28;20560;-70
2023/08/22 09:45:20;;;;;;;8.07;4.90;;;;;;;;;;4979957;28;20591;-70
2023/08/22 09:47:48;;;;;;;6.95;4.50;;;;;;;;;;4982844;28;20187;-70
2023/08/22 09:50:15;;;;;;;8.70;4.25;;;;;;;;;;4983235;28;20187;-71
2023/08/22 09:52:41;;;;;;;8.57;4.13;;;;;;;;;;4983597;28;20536;-70
2023/08/22 09:55:07;;;;;;;5.13;3.60;;;;;;;;;;4981924;28;20183;-71
2023/08/22 09:57:33;;;;;;;4.40;3.65;;;;;;;;;;4981234;28;20693;-70
2023/08/22 09:59:59;;;;;;;5.60;4.25;;;;;;;;;;4984271;28;20198;-70
2023/08/22 10:02:26;;;;;;;7.47;4.20;;;;;;;;;;4982393;28;20180;-71
2023/08/22 10:04:51;;;;;;;8.35;4.15;;;;;;;;;;4983328;28;20258;-71
2023/08/22 10:07:16;;;;;;;6.60;4.03;;;;;;;;;;4979443;28;20701;-71
2023/08/22 10:09:42;;;;;;;7.63;4.83;;;;;;;;;;4981955;28;20214;-71
2023/08/22 10:12:09;;;;;;;6.28;4.03;;;;;;;;;;4981460;28;20457;-72
2023/08/22 10:14:39;;;;;;;7.13;4.57;;;;;;;;;;4980464;28;20195;-71
2023/08/22 10:17:09;;;;;;;5.82;4.75;;;;;;;;;;4976019;28;20200;-71
2023/08/22 10:19:36;;;;;;;8.25;4.82;;;;;;;;;;4981267;28;20184;-71
2023/08/22 10:22:09;;;;;;;7.88;4.32;;;;;;;;;;4982334;28;20198;-70
2023/08/22 10:24:35;;;;;;;9.40;5.40;;;;;;;;;;4980401;28;20206;-70
2023/08/22 10:27:19;;;;;;;6.53;4.03;;;;;;;;;;4980764;28;20209;-71
2023/08/22 10:29:45;;;;;;;6.53;3.83;;;;;;;;;;4982919;28;20179;-70
2023/08/22 10:32:11;;;;;;;7.82;3.92;;;;;;;;;;4983055;28;20218;-71
2023/08/22 10:34:36;;;;;;;7.33;3.73;;;;;;;;;;4980349;28;20177;-70
2023/08/22 10:37:03;;;;;;;5.50;3.40;;;;;;;;;;4979599;28;20823;-70
2023/08/22 10:39:44;;;;;;;5.72;3.55;;;;;;;;;;4980350;28;20459;-72
2023/08/22 10:42:15;;;;;;;4.88;3.17;;;;;;;;;;4980449;28;20277;-70
2023/08/22 10:44:41;;;;;;;3.63;2.90;;;;;;;;;;4981184;28;20196;-70
2023/08/22 10:47:07;;;;;;;5.25;2.10;;;;;;;;;;4981012;28;20281;-71
2023/08/22 10:49:33;;;;;;;6.38;2.40;;;;;;;;;;4981933;28;20196;-70
2023/08/22 10:52:11;;;;;;;6.88;2.67;;;;;;;;;;4980801;28;20216;-70
2023/08/22 10:54:55;;;;;;;4.18;2.25;;;;;;;;;;4977003;28;20187;-70
2023/08/22 10:57:20;;;;;;;4.97;2.83;;;;;;;;;;4980316;28;20274;-71
2023/08/22 10:59:53;;;;;;;5.33;2.20;;;;;;;;;;4979270;28;20657;-71
2023/08/22 11:02:19;;;;;;;3.80;2.00;;;;;;;;;;4978323;28;20422;-71
2023/08/22 11:04:44;;;;;;;4.72;1.83;;;;;;;;;;4982661;28;20633;-72
2023/08/22 11:07:10;;;;;;;7.78;1.92;;;;;;;;;;4979594;28;20586;-71
2023/08/22 11:09:35;;;;;;;2.30;1.27;;;;;;;;;;4979408;28;20222;-71
2023/08/22 11:12:01;;;;;;;2.53;1.40;;;;;;;;;;4981458;28;20345;-71
2023/08/22 11:14:26;;;;;;;4.53;2.97;;;;;;;;;;4982724;28;20211;-71
2023/08/22 11:16:51;;;;;;;1.88;1.17;;;;;;;;;;4974342;28;20325;-72
2023/08/22 11:19:17;;;;;;;3.65;1.63;;;;;;;;;;4980390;28;20267;-71
2023/08/22 11:21:42;;;;;;;5.25;1.73;;;;;;;;;;4979991;28;20863;-70
2023/08/22 11:24:08;;;;;;;4.97;1.88;;;;;;;;;;4980940;28;20298;-71
2023/08/22 11:26:33;;;;;;;6.45;1.63;;;;;;;;;;4978182;28;20311;-71
2023/08/22 11:29:04;;;;;;;4.10;1.48;;;;;;;;;;4978151;28;20216;-70
2023/08/22 11:31:30;;;;;;;3.65;1.42;;;;;;;;;;4982801;28;20674;-71
2023/08/22 11:33:56;;;;;;;4.47;1.25;;;;;;;;;;4973363;28;20176;-72
2023/08/22 11:36:21;;;;;;;5.43;1.60;;;;;;;;;;4980613;28;20233;-71
2023/08/22 11:38:47;;;;;;;4.22;1.58;;;;;;;;;;4979967;28;21052;-72
2023/08/22 11:41:12;;;;;;;2.70;1.15;;;;;;;;;;4979788;28;20795;-71
2023/08/22 11:43:44;;;;;;;9.02;1.88;;;;;;;;;;4980752;28;20261;-71
2023/08/22 11:46:09;;;;;;;4.53;1.13;;;;;;;;;;4976209;28;20211;-71
2023/08/22 11:48:35;;;;;;;2.40;0.90;;;;;;;;;;4979707;28;20198;-72
2023/08/22 11:51:00;;;;;;;3.80;0.90;;;;;;;;;;4981807;28;20188;-71
2023/08/22 11:53:28;;;;;;;1.93;0.60;;;;;;;;;;4981187;28;20203;-70
2023/08/22 11:55:55;;;;;;;2.33;0.85;;;;;;;;;;4980632;28;20493;-71
2023/08/22 11:58:21;;;;;;;5.38;1.33;;;;;;;;;;4979462;28;20199;-71
2023/08/22 12:00:46;;;;;;;3.63;0.80;;;;;;;;;;4981947;28;20277;-70
2023/08/22 12:03:12;;;;;;;2.22;0.98;;;;;;;;;;4978491;28;20182;-70
2023/08/22 12:05:41;;;;;;;2.70;1.23;;;;;;;;;;4978672;28;21046;-70
2023/08/22 12:08:06;;;;;;;4.15;1.33;;;;;;;;;;4996450;23;20239;-68
2023/08/22 12:10:58;;;;;;;4.47;1.67;;;;;;;;;;4988551;28;20186;-67
2023/08/22 12:13:24;;;;;;;2.78;1.08;;;;;;;;;;4984565;28;20540;-68
2023/08/22 12:15:49;;;;;;;2.03;0.93;;;;;;;;;;4988971;28;20909;-67
2023/08/22 12:18:15;;;;;;;2.72;0.93;;;;;;;;;;4998511;28;21001;-67
2023/08/22 12:20:41;;;;;;;4.70;1.20;;;;;;;;;;4998845;28;20175;-67
2023/08/22 12:23:07;;;;;;;6.93;1.20;;;;;;;;;;4997494;28;20202;-67
2023/08/22 12:25:36;;;;;;;3.45;1.20;;;;;;;;;;4998553;28;20552;-67
2023/08/22 12:28:05;;;;;;;5.18;1.30;;;;;;;;;;4998263;28;20198;-67
2023/08/22 12:30:33;;;;;;;1.80;0.80;;;;;;;;;;4998010;28;20190;-68
2023/08/22 12:32:58;;;;;;;5.82;1.20;;;;;;;;;;4996058;28;20223;-67
2023/08/22 12:35:23;;;;;;;5.57;1.10;;;;;;;;;;4998020;28;20189;-68
2023/08/22 12:37:48;;;;;;;6.35;2.35;;;;;;;;;;4998407;28;20214;-67
2023/08/22 12:40:14;;;;;;;5.83;1.33;;;;;;;;;;4993338;28;20281;-68
2023/08/22 12:42:40;;;;;;;3.40;1.33;;;;;;;;;;4995405;28;20440;-68
2023/08/22 12:45:09;;;;;;;4.50;2.13;;;;;;;;;;4999639;28;20187;-68
2023/08/22 12:47:37;;;;;;;3.33;1.30;;;;;;;;;;5001821;28;20203;-67
2023/08/22 12:50:03;;;;;;;3.25;1.25;;;;;;;;;;5001217;28;20193;-68
2023/08/22 12:52:28;;;;;;;5.07;1.65;;;;;;;;;;4997768;28;20207;-68
2023/08/22 12:54:53;;;;;;;3.33;1.63;;;;;;;;;;4997346;28;20194;-68
2023/08/22 12:57:19;;;;;;;4.68;1.55;;;;;;;;;;5000491;28;20214;-67
2023/08/22 12:59:44;;;;;;;5.45;1.55;;;;;;;;;;4996947;28;20191;-68
2023/08/22 13:02:09;;;;;;;4.10;1.77;;;;;;;;;;4999385;28;20269;-67
2023/08/22 13:04:34;;;;;;;7.20;1.73;;;;;;;;;;5002232;28;20187;-68
2023/08/22 13:07:00;;;;;;;3.70;1.73;;;;;;;;;;5000040;28;20495;-67
2023/08/22 13:09:25;;;;;;;6.37;2.10;;;;;;;;;;5001461;28;20416;-68
2023/08/22 13:11:51;;;;;;;4.07;1.45;;;;;;;;;;5001019;28;20482;-68
2023/08/22 13:14:16;;;;;;;3.38;1.83;;;;;;;;;;4994868;28;20183;-68
2023/08/22 13:16:41;;;;;;;5.60;1.67;;;;;;;;;;4995030;28;20616;-67
2023/08/22 13:19:06;;;;;;;3.20;0.80;;;;;;;;;;5000230;28;20417;-68
2023/08/22 13:21:32;;;;;;;3.33;1.20;;;;;;;;;;5001131;28;20424;-68
2023/08/22 13:23:57;;;;;;;2.13;1.23;;;;;;;;;;4999837;28;20198;-68
2023/08/22 13:26:23;;;;;;;5.68;1.33;;;;;;;;;;5000753;28;20208;-68
2023/08/22 13:28:50;;;;;;;5.25;1.88;;;;;;;;;;5000123;28;20248;-68
2023/08/22 13:31:15;;;;;;;4.40;1.38;;;;;;;;;;5000599;28;20929;-68
2023/08/22 13:33:40;;;;;;;3.80;1.92;;;;;;;;;;4995446;28;20288;-68
2023/08/22 13:36:06;;;;;;;3.10;1.50;;;;;;;;;;5000233;28;20396;-67
2023/08/22 13:38:31;;;;;;;4.63;2.00;;;;;;;;;;4999683;28;20428;-67
2023/08/22 13:40:56;;;;;;;7.85;2.80;;;;;;;;;;5001134;28;20244;-67
2023/08/22 13:43:21;;;;;;;2.78;1.80;;;;;;;;;;5001006;28;20175;-67
2023/08/22 13:45:46;;;;;;;3.17;1.50;;;;;;;;;;5001151;28;20182;-67
2023/08/22 13:48:12;;;;;;;4.32;1.83;;;;;;;;;;4999963;28;20483;-67
2023/08/22 13:50:37;;;;;;;4.07;1.50;;;;;;;;;;4995063;28;20190;-67
2023/08/22 13:53:02;;;;;;;7.22;1.23;;;;;;;;;;5000869;28;20470;-67
2023/08/22 13:55:28;;;;;;;3.17;1.23;;;;;;;;;;5000188;28;20575;-66
2023/08/22 13:57:53;;;;;;;5.45;1.27;;;;;;;;;;4999660;28;20274;-66
2023/08/22 14:00:18;;;;;;;2.38;1.20;;;;;;;;;;4998121;28;20206;-67
2023/08/22 14:02:43;;;;;;;2.75;1.00;;;;;;;;;;5000463;28;20207;-67
2023/08/22 14:05:08;;;;;;;4.57;0.80;;;;;;;;;;4999825;28;20266;-67
2023/08/22 14:07:34;;;;;;;1.77;0.67;;;;;;;;;;4994453;28;20457;-67
2023/08/22 14:09:59;;;;;;;1.87;0.90;;;;;;;;;;4997812;28;20432;-67
2023/08/22 14:12:24;;;;;;;3.50;1.00;;;;;;;;;;4998470;28;21866;-67
2023/08/22 14:14:49;;;;;;;2.50;0.80;;;;;;;;;;5000081;28;20906;-66
2023/08/22 14:17:14;;;;;;;3.27;0.50;;;;;;;;;;4999802;28;20191;-67
2023/08/22 14:19:40;;;;;;;1.37;0.60;;;;;;;;;;5000388;28;20408;-67
2023/08/22 14:22:05;;;;;;;2.08;0.57;;;;;;;;;;4996780;28;20426;-67
2023/08/22 14:24:30;;;;;;;4.50;1.50;;;;;;;;;;4998560;28;20325;-67
2023/08/22 14:26:55;;;;;;;1.93;0.70;;;;;;;;;;4994542;28;20445;-67
2023/08/22 14:29:21;;;;;;;2.72;1.00;;;;;;;;;;4999091;28;20833;-67